createdAt,value
2018-09-14T00:00:04.150Z,119
2018-09-14T00:05:04.157Z,119
2018-09-14T00:10:04.163Z,119
2018-09-14T00:15:04.161Z,119
2018-09-14T00:20:04.157Z,119
2018-09-14T00:25:04.174Z,119
2018-09-14T00:30:04.163Z,119
2018-09-14T00:35:04.163Z,119
2018-09-14T00:40:04.174Z,119
2018-09-14T00:45:04.177Z,119
2018-09-14T00:50:04.177Z,119
2018-09-14T00:55:04.202Z,119
2018-09-14T01:00:04.186Z,119
2018-09-14T01:05:04.186Z,119
2018-09-14T01:10:04.206Z,119
2018-09-14T01:15:04.192Z,119
2018-09-14T01:20:04.243Z,119
2018-09-14T01:25:04.213Z,119
2018-09-14T01:30:04.198Z,119
2018-09-14T01:35:04.200Z,119
2018-09-14T01:40:04.198Z,119
2018-09-14T01:45:04.212Z,119
2018-09-14T01:50:04.210Z,119
2018-09-14T01:55:04.221Z,119
2018-09-14T02:00:04.208Z,119
2018-09-14T02:05:04.233Z,119
2018-09-14T02:10:04.222Z,119
2018-09-14T02:15:04.221Z,119
2018-09-14T02:20:04.237Z,119
2018-09-14T02:25:04.222Z,119
2018-09-14T02:30:04.227Z,119
2018-09-14T02:35:04.233Z,119
2018-09-14T02:40:04.227Z,119
2018-09-14T02:45:04.236Z,119
2018-09-14T02:50:04.253Z,119
2018-09-14T02:55:04.236Z,119
2018-09-14T03:00:04.361Z,119
2018-09-14T03:05:04.269Z,119
2018-09-14T03:10:04.256Z,119
2018-09-14T03:15:04.265Z,119
2018-09-14T03:20:04.321Z,119
2018-09-14T03:25:04.261Z,119
2018-09-14T03:30:04.281Z,119
2018-09-14T03:35:04.268Z,119
2018-09-14T03:40:04.263Z,119
2018-09-14T03:45:04.283Z,119
2018-09-14T03:50:04.279Z,119
2018-09-14T03:55:04.272Z,119
2018-09-14T04:00:04.308Z,119
2018-09-14T04:05:04.273Z,119
2018-09-14T04:10:04.281Z,119
2018-09-14T04:15:04.292Z,119
2018-09-14T04:20:04.289Z,119
2018-09-14T04:25:04.309Z,119
2018-09-14T04:30:04.305Z,119
2018-09-14T04:35:04.295Z,119
2018-09-14T04:40:04.297Z,119
2018-09-14T04:45:04.323Z,119
2018-09-14T04:50:04.305Z,119
2018-09-14T04:55:04.328Z,119
2018-09-14T05:00:04.314Z,119
2018-09-14T05:05:04.310Z,119
2018-09-14T05:10:04.318Z,119
2018-09-14T05:15:04.328Z,119
2018-09-14T05:20:04.321Z,119
2018-09-14T05:25:04.458Z,119
2018-09-14T05:30:04.348Z,119
2018-09-14T05:35:04.322Z,119
2018-09-14T05:40:04.332Z,119
2018-09-14T05:45:04.343Z,119
2018-09-14T05:50:04.333Z,119
2018-09-14T05:55:04.341Z,119
2018-09-14T06:00:04.352Z,119
2018-09-14T06:05:04.360Z,119
2018-09-14T06:10:04.343Z,119
2018-09-14T06:15:04.358Z,119
2018-09-14T06:20:04.366Z,119
2018-09-14T06:25:04.353Z,119
2018-09-14T06:30:04.365Z,119
2018-09-14T06:35:04.365Z,119
2018-09-14T06:40:04.362Z,119
2018-09-14T06:45:04.542Z,119
2018-09-14T06:50:04.369Z,119
2018-09-14T06:55:04.372Z,119
2018-09-14T07:00:04.431Z,119
2018-09-14T07:05:04.369Z,119
2018-09-14T07:10:04.378Z,119
2018-09-14T07:15:04.384Z,119
2018-09-14T07:20:04.382Z,119
2018-09-14T07:25:04.383Z,119
2018-09-14T07:30:04.434Z,119
2018-09-14T07:35:04.391Z,119
2018-09-14T07:40:04.396Z,119
2018-09-14T07:45:04.418Z,119
2018-09-14T07:50:04.400Z,119
2018-09-14T07:55:04.406Z,119
2018-09-14T08:00:04.410Z,119
2018-09-14T08:05:04.405Z,119
2018-09-14T08:10:04.410Z,119
2018-09-14T08:15:04.422Z,119
2018-09-14T08:20:04.528Z,119
2018-09-14T08:25:03.413Z,119
2018-09-14T08:30:03.421Z,119
2018-09-14T08:35:03.425Z,119
2018-09-14T08:40:03.440Z,119
2018-09-14T08:45:03.431Z,119
2018-09-14T08:50:03.439Z,119
2018-09-14T08:55:03.442Z,119
2018-09-14T09:00:03.445Z,119
2018-09-14T09:05:03.449Z,119
2018-09-14T09:10:03.464Z,119
2018-09-14T09:15:03.445Z,119
2018-09-14T09:20:03.469Z,119
2018-09-14T09:25:03.446Z,119
2018-09-14T09:30:03.474Z,119
2018-09-14T09:35:03.461Z,119
2018-09-14T09:40:03.473Z,119
2018-09-14T09:45:03.478Z,119
2018-09-14T09:50:03.467Z,119
2018-09-14T09:55:03.493Z,119
2018-09-14T10:00:03.489Z,119
2018-09-14T10:05:03.492Z,119
2018-09-14T10:10:03.472Z,119
2018-09-14T10:15:03.694Z,119
2018-09-14T10:20:03.490Z,119
2018-09-14T10:25:03.484Z,119
2018-09-14T10:30:03.491Z,119
2018-09-14T10:35:03.661Z,119
2018-09-14T10:40:03.583Z,119
2018-09-14T10:45:03.492Z,119
2018-09-14T10:50:03.678Z,119
2018-09-14T10:55:03.500Z,119
2018-09-14T11:00:03.563Z,119
2018-09-14T11:05:03.524Z,119
2018-09-14T11:10:03.748Z,119
2018-09-14T11:15:03.506Z,119
2018-09-14T11:20:03.532Z,119
2018-09-14T11:25:03.723Z,119
2018-09-14T11:30:03.524Z,119
2018-09-14T11:35:03.532Z,119
2018-09-14T11:40:03.529Z,119
2018-09-14T11:45:03.627Z,119
2018-09-14T11:50:03.550Z,119
2018-09-14T11:55:03.564Z,119
2018-09-14T12:00:03.612Z,119
2018-09-14T12:05:03.539Z,119
2018-09-14T12:10:03.547Z,111.89
2018-09-14T12:15:03.546Z,119
2018-09-14T12:20:03.562Z,119
2018-09-14T12:25:03.557Z,119
2018-09-14T12:30:03.569Z,119
2018-09-14T12:35:03.575Z,119
2018-09-14T12:40:03.555Z,119
2018-09-14T12:45:03.564Z,119
2018-09-14T12:50:03.566Z,119
2018-09-14T12:55:03.579Z,119
2018-09-14T13:00:03.578Z,119
2018-09-14T13:05:03.594Z,119
2018-09-14T13:10:03.573Z,119
2018-09-14T13:15:03.858Z,119
2018-09-14T13:20:03.584Z,119
2018-09-14T13:25:03.579Z,119
2018-09-14T13:30:03.591Z,119
2018-09-14T13:35:03.610Z,119
2018-09-14T13:40:03.717Z,119
2018-09-14T13:45:03.611Z,95.68
2018-09-14T13:50:03.613Z,94.6
2018-09-14T13:55:03.609Z,54.36
2018-09-14T14:00:03.606Z,11.99
2018-09-14T14:05:03.612Z,-6
2018-09-14T14:10:03.604Z,-6
2018-09-14T14:15:03.612Z,-6
2018-09-14T14:20:03.621Z,-6
2018-09-14T14:25:03.633Z,-6
2018-09-14T14:30:03.625Z,-6
2018-09-14T14:35:03.651Z,-6
2018-09-14T14:40:03.856Z,-6
2018-09-14T14:45:03.621Z,-6
2018-09-14T14:50:03.637Z,-6
2018-09-14T14:55:03.637Z,-6
2018-09-14T15:00:03.635Z,-6
2018-09-14T15:05:03.651Z,-6
2018-09-14T15:10:03.650Z,-6
2018-09-14T15:15:03.641Z,-6
2018-09-14T15:20:03.673Z,-2.14
2018-09-14T15:25:03.650Z,18.16
2018-09-14T15:30:03.648Z,19.5
2018-09-14T15:35:03.659Z,14.61
2018-09-14T15:40:03.766Z,6.63
2018-09-14T15:45:03.651Z,3.21
2018-09-14T15:50:03.663Z,12.87
2018-09-14T15:55:03.658Z,19.49
2018-09-14T16:00:03.655Z,34.32
2018-09-14T16:05:03.670Z,40.96
2018-09-14T16:10:03.662Z,49.38
2018-09-14T16:15:03.664Z,58.48
2018-09-14T16:20:03.672Z,69.69
2018-09-14T16:25:03.680Z,69.46
2018-09-14T16:30:03.674Z,66.18
2018-09-14T16:35:03.696Z,54.41
2018-09-14T16:40:03.938Z,55.54
2018-09-14T16:45:03.689Z,67.58
2018-09-14T16:50:03.689Z,95.28
2018-09-14T16:55:03.692Z,103.67
2018-09-14T17:00:03.692Z,119
2018-09-14T17:05:03.710Z,119
2018-09-14T17:10:03.701Z,119
2018-09-14T17:15:03.693Z,119
2018-09-14T17:20:03.712Z,119
2018-09-14T17:25:03.704Z,119
2018-09-14T17:30:03.710Z,119
2018-09-14T17:35:03.719Z,119
2018-09-14T17:40:03.975Z,119
2018-09-14T17:45:03.712Z,119
2018-09-14T17:50:03.728Z,119
2018-09-14T17:55:03.718Z,119
2018-09-14T18:00:03.723Z,119
2018-09-14T18:05:04.441Z,119
2018-09-14T18:10:03.722Z,119
2018-09-14T18:15:03.731Z,119
2018-09-14T18:20:03.740Z,119
2018-09-14T18:25:03.747Z,119
2018-09-14T18:30:04.209Z,119
2018-09-14T18:35:03.748Z,119
2018-09-14T18:40:03.767Z,119
2018-09-14T18:45:03.752Z,119
2018-09-14T18:50:03.765Z,119
2018-09-14T18:55:03.761Z,119
2018-09-14T19:00:03.762Z,119
2018-09-14T19:05:03.778Z,119
2018-09-14T19:10:03.765Z,119
2018-09-14T19:15:03.769Z,119
2018-09-14T19:20:03.772Z,119
2018-09-14T19:25:03.778Z,119
2018-09-14T19:30:03.771Z,119
2018-09-14T19:35:03.797Z,119
2018-09-14T19:40:03.774Z,119
2018-09-14T19:45:03.781Z,119
2018-09-14T19:50:03.890Z,119
2018-09-14T19:55:03.799Z,119
2018-09-14T20:00:03.791Z,119
2018-09-14T20:05:03.798Z,119
2018-09-14T20:10:03.794Z,119
2018-09-14T20:15:03.794Z,119
2018-09-14T20:20:03.806Z,119
2018-09-14T20:25:03.800Z,119
2018-09-14T20:30:03.801Z,119
2018-09-14T20:35:03.809Z,119
2018-09-14T20:40:03.810Z,119
2018-09-14T20:45:03.815Z,119
2018-09-14T20:50:03.836Z,119
2018-09-14T20:55:03.820Z,119
2018-09-14T21:00:03.816Z,119
2018-09-14T21:05:03.845Z,119
2018-09-14T21:10:03.833Z,119
2018-09-14T21:15:03.837Z,119
2018-09-14T21:20:03.849Z,119
2018-09-14T21:25:03.835Z,119
2018-09-14T21:30:03.833Z,119
2018-09-14T21:35:03.917Z,119
2018-09-14T21:40:03.838Z,119
2018-09-14T21:45:03.843Z,119
2018-09-14T21:50:03.853Z,119
2018-09-14T21:55:03.849Z,119
2018-09-14T22:00:03.856Z,119
2018-09-14T22:05:03.863Z,119
2018-09-14T22:10:03.850Z,119
2018-09-14T22:15:03.860Z,119
2018-09-14T22:20:03.864Z,119
2018-09-14T22:25:03.875Z,119
2018-09-14T22:30:03.869Z,119
2018-09-14T22:35:03.870Z,119
2018-09-14T22:40:03.881Z,119
2018-09-14T22:45:03.873Z,119
2018-09-14T22:50:03.878Z,119
2018-09-14T22:55:03.888Z,119
2018-09-14T23:00:03.889Z,119
2018-09-14T23:05:03.886Z,119
2018-09-14T23:10:03.910Z,119
2018-09-14T23:15:03.887Z,119
2018-09-14T23:20:03.886Z,119
2018-09-14T23:25:03.911Z,119
2018-09-14T23:30:03.901Z,119
2018-09-14T23:35:03.898Z,119
2018-09-14T23:40:03.919Z,119
2018-09-14T23:45:03.906Z,119
2018-09-14T23:50:03.907Z,119
2018-09-14T23:55:03.930Z,119
